Time;durP1;ratioP1;P1;durP2;ratioP2;P2;SDS_P1;SDS_P2;PMS_P1;PMS_P2;Temp;Humidity;BMP_temperature;BMP_pressure;BME280_temperature;BME280_humidity;BME280_pressure;Samples;Min_cycle;Max_cycle;Signal;HPM_P1;HPM_P2
2021/09/19 00:02:09;;;;;;;0.57;0.50;;;;;;;14.09;100.00;100110.22;5004409;28;20877;-54
2021/09/19 00:04:36;;;;;;;0.60;0.60;;;;;;;13.82;100.00;100104.31;4999490;28;20496;-53
2021/09/19 00:07:03;;;;;;;1.03;1.03;;;;;;;13.83;100.00;100114.06;5005975;28;20496;-53
2021/09/19 00:09:30;;;;;;;0.40;0.30;;;;;;;13.89;100.00;100115.59;5004450;28;20480;-54
2021/09/19 00:11:57;;;;;;;0.50;0.40;;;;;;;13.85;100.00;100104.19;4999313;28;20453;-53
2021/09/19 00:14:24;;;;;;;0.40;0.30;;;;;;;13.91;100.00;100108.38;5000075;28;20454;-53
2021/09/19 00:16:51;;;;;;;0.40;0.30;;;;;;;13.67;100.00;100102.31;5005800;28;20497;-53
2021/09/19 00:19:19;;;;;;;0.40;0.27;;;;;;;13.74;100.00;100103.81;5005499;28;20471;-53
2021/09/19 00:21:47;;;;;;;0.40;0.20;;;;;;;13.71;100.00;100103.94;4986507;28;20476;-53
2021/09/19 00:24:14;;;;;;;0.40;0.20;;;;;;;13.60;100.00;100101.75;4999127;28;20449;-54
2021/09/19 00:26:41;;;;;;;0.50;0.40;;;;;;;13.62;100.00;100107.88;5005586;28;20954;-53
2021/09/19 00:29:08;;;;;;;0.40;0.20;;;;;;;13.54;100.00;100107.34;5005761;28;20456;-54
2021/09/19 00:31:35;;;;;;;0.40;0.20;;;;;;;13.48;100.00;100104.94;4998501;28;20465;-53
2021/09/19 00:34:02;;;;;;;0.40;0.20;;;;;;;13.44;100.00;100113.16;5005551;28;20492;-54
2021/09/19 00:36:28;;;;;;;0.40;0.20;;;;;;;13.38;100.00;100113.41;4999697;28;20519;-53
2021/09/19 00:38:55;;;;;;;0.40;0.20;;;;;;;13.36;100.00;100105.47;4999120;28;20449;-53
2021/09/19 00:41:22;;;;;;;0.40;0.20;;;;;;;13.39;100.00;100104.47;5004619;28;20500;-53
2021/09/19 00:43:49;;;;;;;0.40;0.20;;;;;;;13.34;100.00;100107.34;5005552;28;21000;-53
2021/09/19 00:46:16;;;;;;;0.40;0.20;;;;;;;13.36;100.00;100093.91;5000395;28;20850;-53
2021/09/19 00:48:43;;;;;;;0.53;0.53;;;;;;;13.37;100.00;100096.53;4998884;28;20450;-53
2021/09/19 00:51:10;;;;;;;0.50;0.50;;;;;;;13.33;100.00;100095.78;5004278;28;20478;-54
2021/09/19 00:53:38;;;;;;;0.40;0.30;;;;;;;13.22;100.00;100103.38;5005622;28;20448;-53
2021/09/19 00:56:07;;;;;;;0.40;0.20;;;;;;;13.11;100.00;100092.25;5001402;28;20576;-53
2021/09/19 00:58:34;;;;;;;0.40;0.30;;;;;;;13.13;100.00;100098.41;5009424;28;20522;-53
2021/09/19 01:01:03;;;;;;;0.40;0.20;;;;;;;13.19;100.00;100090.19;4998999;28;20900;-53
2021/09/19 01:03:30;;;;;;;0.40;0.30;;;;;;;13.16;100.00;100084.09;5005430;28;20481;-53
2021/09/19 01:05:57;;;;;;;0.40;0.20;;;;;;;13.10;100.00;100090.53;5002100;28;20471;-53
2021/09/19 01:08:25;;;;;;;0.40;0.30;;;;;;;12.94;100.00;100082.31;5002141;28;20518;-53
2021/09/19 01:10:52;;;;;;;0.40;0.23;;;;;;;13.05;100.00;100088.06;5004429;28;20512;-53
2021/09/19 01:13:19;;;;;;;0.40;0.40;;;;;;;13.05;100.00;100074.72;5009127;28;20499;-53
2021/09/19 01:15:47;;;;;;;0.40;0.20;;;;;;;12.93;100.00;100080.56;5006080;28;20488;-53
2021/09/19 01:18:17;;;;;;;0.30;0.20;;;;;;;12.93;100.00;100083.22;5002430;28;20448;-53
2021/09/19 01:20:45;;;;;;;0.40;0.20;;;;;;;12.90;100.00;100079.84;5004586;28;21066;-53
2021/09/19 01:23:13;;;;;;;0.40;0.20;;;;;;;12.99;100.00;100076.75;5008873;28;20489;-54
2021/09/19 01:25:42;;;;;;;0.77;0.77;;;;;;;12.90;100.00;100078.03;5007333;28;20998;-53
2021/09/19 01:28:10;;;;;;;0.40;0.20;;;;;;;12.67;100.00;100070.97;5000701;28;20479;-53
2021/09/19 01:30:38;;;;;;;0.40;0.30;;;;;;;12.79;100.00;100072.25;5007732;28;20468;-53
2021/09/19 01:33:05;;;;;;;0.40;0.30;;;;;;;12.58;100.00;100068.66;5002297;28;20449;-53
2021/09/19 01:35:33;;;;;;;0.37;0.20;;;;;;;12.53;100.00;100067.13;5002373;28;20453;-53
2021/09/19 01:38:00;;;;;;;0.40;0.20;;;;;;;12.69;100.00;100069.09;5008686;28;20543;-53
2021/09/19 01:40:28;;;;;;;0.57;0.57;;;;;;;12.63;100.00;100060.50;5008486;28;20608;-52
2021/09/19 01:42:56;;;;;;;0.30;0.20;;;;;;;12.70;100.00;100067.28;5008357;28;20512;-53
2021/09/19 01:45:23;;;;;;;1.63;1.53;;;;;;;12.58;100.00;100068.66;5008442;28;20452;-53
2021/09/19 01:47:51;;;;;;;0.40;0.20;;;;;;;12.55;100.00;100066.13;5002865;28;20456;-53
2021/09/19 01:50:24;;;;;;;0.40;0.40;;;;;;;12.55;100.00;100060.78;5001706;28;20524;-53
2021/09/19 01:52:52;;;;;;;0.67;0.67;;;;;;;12.45;100.00;100057.63;5006799;28;20516;-52
2021/09/19 01:55:20;;;;;;;0.40;0.20;;;;;;;12.58;100.00;100063.31;5009902;28;20914;-52
2021/09/19 01:57:47;;;;;;;0.33;0.20;;;;;;;12.57;100.00;100052.72;5014888;28;20872;-52
2021/09/19 02:00:14;;;;;;;1.03;1.03;;;;;;;12.50;100.00;100054.78;5001374;28;20527;-52
2021/09/19 02:02:41;;;;;;;0.30;0.20;;;;;;;12.52;100.00;100052.94;5008001;28;20448;-52
2021/09/19 02:05:10;;;;;;;0.30;0.20;;;;;;;12.18;100.00;100050.72;5001237;28;20488;-53
2021/09/19 02:07:38;;;;;;;0.40;0.20;;;;;;;12.16;100.00;100042.78;5004680;28;20453;-53
2021/09/19 02:10:09;;;;;;;0.40;0.20;;;;;;;12.27;100.00;100049.50;5007615;28;20543;-53
2021/09/19 02:12:37;;;;;;;0.40;0.30;;;;;;;12.24;100.00;100052.28;5005783;28;20480;-52
2021/09/19 02:15:06;;;;;;;0.30;0.20;;;;;;;12.14;100.00;100052.63;5001126;28;20953;-53
2021/09/19 02:17:34;;;;;;;0.40;0.20;;;;;;;11.90;100.00;100037.59;5002916;28;20575;-52
2021/09/19 02:20:03;;;;;;;0.40;0.20;;;;;;;11.71;100.00;100032.06;5005971;28;20474;-52
2021/09/19 02:22:30;;;;;;;1.13;1.13;;;;;;;11.84;100.00;100033.38;5006389;28;20487;-52
2021/09/19 02:24:56;;;;;;;0.40;0.20;;;;;;;11.82;100.00;100029.91;5001118;28;20460;-52
2021/09/19 02:27:23;;;;;;;0.40;0.30;;;;;;;11.86;100.00;100033.31;5000958;28;20473;-52
2021/09/19 02:29:50;;;;;;;0.40;0.20;;;;;;;11.74;100.00;100026.63;5007557;28;20532;-52
2021/09/19 02:32:17;;;;;;;0.30;0.20;;;;;;;11.90;100.00;100028.72;5000468;28;20516;-53
2021/09/19 02:34:44;;;;;;;0.30;0.20;;;;;;;11.98;100.00;100034.66;5007467;28;20883;-53
2021/09/19 02:37:11;;;;;;;0.40;0.20;;;;;;;11.97;100.00;100028.44;5007013;28;20539;-52
2021/09/19 02:39:38;;;;;;;1.30;1.30;;;;;;;12.22;100.00;100027.50;5000834;28;20535;-52
2021/09/19 02:42:05;;;;;;;0.40;0.20;;;;;;;12.05;100.00;100028.13;5001145;28;20492;-53
2021/09/19 02:44:33;;;;;;;0.40;0.27;;;;;;;12.04;100.00;100035.25;5007595;28;20493;-53
2021/09/19 02:46:59;;;;;;;0.40;0.20;;;;;;;11.95;100.00;100024.13;5007478;28;20495;-53
2021/09/19 02:49:26;;;;;;;0.40;0.30;;;;;;;11.87;100.00;100019.06;5001296;28;20512;-53
2021/09/19 02:51:53;;;;;;;0.40;0.30;;;;;;;11.85;100.00;100028.91;5000378;28;20449;-53
2021/09/19 02:54:20;;;;;;;0.30;0.20;;;;;;;11.81;100.00;100019.31;5006983;28;20485;-53
2021/09/19 02:56:47;;;;;;;0.30;0.20;;;;;;;11.83;100.00;100018.31;5008552;28;20534;-53
2021/09/19 02:59:14;;;;;;;0.40;0.20;;;;;;;11.78;100.00;100019.38;5005679;28;20484;-53
2021/09/19 03:01:41;;;;;;;0.40;0.20;;;;;;;11.67;100.00;100019.81;5002485;28;20885;-53
2021/09/19 03:04:08;;;;;;;0.40;0.20;;;;;;;11.68;100.00;100013.56;5004997;28;20547;-53
2021/09/19 03:06:35;;;;;;;0.30;0.20;;;;;;;11.70;100.00;100008.16;5007032;28;20492;-53
2021/09/19 03:09:02;;;;;;;0.40;0.20;;;;;;;11.65;100.00;100011.00;5002727;28;20452;-53
2021/09/19 03:11:29;;;;;;;0.30;0.20;;;;;;;11.78;100.00;100008.72;4998291;28;20517;-53
2021/09/19 03:13:56;;;;;;;0.40;0.27;;;;;;;11.73;100.00;100008.03;5002680;28;20483;-53
2021/09/19 03:16:23;;;;;;;0.30;0.20;;;;;;;11.84;100.00;100011.19;5000106;28;20481;-53
2021/09/19 03:18:50;;;;;;;0.30;0.20;;;;;;;11.56;100.00;100009.53;5004186;28;20464;-53
2021/09/19 03:21:17;;;;;;;6.03;1.47;;;;;;;11.51;100.00;99999.97;5006941;28;20908;-53
2021/09/19 03:23:44;;;;;;;0.30;0.20;;;;;;;11.63;100.00;100006.63;5003369;28;20477;-53
2021/09/19 03:26:11;;;;;;;0.30;0.20;;;;;;;11.71;100.00;99993.91;4998837;28;20456;-53
2021/09/19 03:28:38;;;;;;;0.40;0.30;;;;;;;11.67;100.00;100002.97;5003610;28;20461;-53
2021/09/19 03:31:04;;;;;;;0.30;0.20;;;;;;;11.65;100.00;100003.03;5004628;28;20501;-53
2021/09/19 03:33:31;;;;;;;0.40;0.20;;;;;;;11.51;100.00;100007.97;5003426;28;20462;-53
2021/09/19 03:35:58;;;;;;;0.30;0.20;;;;;;;11.68;100.00;100007.34;4998391;28;20460;-53
2021/09/19 03:38:25;;;;;;;0.40;0.30;;;;;;;11.52;100.00;100017.72;5002754;28;20497;-53
2021/09/19 03:40:52;;;;;;;0.30;0.20;;;;;;;11.53;100.00;100014.13;5006410;28;20536;-53
2021/09/19 03:43:19;;;;;;;0.30;0.20;;;;;;;11.58;100.00;100013.00;5003593;28;20453;-53
2021/09/19 03:45:46;;;;;;;0.30;0.20;;;;;;;11.48;100.00;100014.28;4999446;28;20479;-53
2021/09/19 03:48:13;;;;;;;0.30;0.20;;;;;;;11.42;100.00;100013.63;5001614;28;20485;-53
2021/09/19 03:50:40;;;;;;;0.30;0.20;;;;;;;11.47;100.00;100004.56;5006040;28;20539;-53
2021/09/19 03:53:07;;;;;;;0.40;0.20;;;;;;;11.57;100.00;100008.63;5004045;28;20837;-53
2021/09/19 03:55:34;;;;;;;0.30;0.20;;;;;;;11.52;100.00;100007.94;4998714;28;20491;-53
2021/09/19 03:58:01;;;;;;;0.30;0.20;;;;;;;11.55;100.00;100001.63;5012587;28;20485;-53
2021/09/19 04:00:29;;;;;;;0.30;0.20;;;;;;;11.53;100.00;100008.81;4998007;28;20526;-53
2021/09/19 04:02:56;;;;;;;0.30;0.20;;;;;;;11.63;100.00;100011.97;5006176;28;20469;-53
2021/09/19 04:05:23;;;;;;;0.30;0.20;;;;;;;11.67;100.00;100010.94;4999356;28;20456;-53
2021/09/19 04:07:50;;;;;;;0.30;0.20;;;;;;;11.49;100.00;100015.13;5000251;28;20453;-53
2021/09/19 04:10:17;;;;;;;0.40;0.30;;;;;;;11.48;100.00;100003.63;5006106;28;20602;-53
2021/09/19 04:12:44;;;;;;;0.30;0.20;;;;;;;11.44;100.00;100012.66;5005413;28;20452;-53
2021/09/19 04:15:12;;;;;;;0.30;0.20;;;;;;;11.43;100.00;100013.59;4997945;28;20460;-53
2021/09/19 04:17:39;;;;;;;0.30;0.20;;;;;;;11.36;100.00;100014.72;4999639;28;20532;-53
2021/09/19 04:20:07;;;;;;;0.73;0.73;;;;;;;11.40;100.00;100023.47;5005776;28;20539;-53
2021/09/19 04:22:34;;;;;;;0.30;0.20;;;;;;;11.39;100.00;100019.09;5005748;28;20461;-54
2021/09/19 04:25:01;;;;;;;0.30;0.20;;;;;;;11.25;100.00;100019.59;4999834;28;20448;-53
2021/09/19 04:27:28;;;;;;;0.30;0.20;;;;;;;11.37;100.00;100011.13;4999140;28;20831;-53
2021/09/19 04:29:55;;;;;;;0.30;0.20;;;;;;;11.41;100.00;100004.78;5005618;28;20516;-53
2021/09/19 04:32:22;;;;;;;0.30;0.20;;;;;;;11.44;100.00;100017.09;4998695;28;20453;-53
2021/09/19 04:34:50;;;;;;;0.30;0.30;;;;;;;11.40;100.00;100015.50;5005298;28;20454;-53
2021/09/19 04:37:17;;;;;;;0.30;0.20;;;;;;;11.42;100.00;100019.84;5005588;28;20484;-53
2021/09/19 04:39:45;;;;;;;0.30;0.20;;;;;;;11.45;100.00;100016.19;4999873;28;20539;-53
2021/09/19 04:42:13;;;;;;;0.30;0.20;;;;;;;11.47;100.00;100022.31;5000423;28;20500;-53
2021/09/19 04:44:41;;;;;;;0.30;0.20;;;;;;;11.43;100.00;100026.03;5008149;28;20457;-53
2021/09/19 04:47:08;;;;;;;0.30;0.20;;;;;;;11.28;100.00;100019.47;5013291;28;20480;-53
2021/09/19 04:49:36;;;;;;;0.30;0.20;;;;;;;11.61;100.00;100013.81;5003919;28;20482;-53
2021/09/19 04:52:03;;;;;;;0.30;0.20;;;;;;;11.64;100.00;100019.03;5003065;28;20454;-53
2021/09/19 04:54:30;;;;;;;0.30;0.20;;;;;;;11.58;100.00;100015.69;5006874;28;21004;-54
2021/09/19 04:56:57;;;;;;;0.30;0.30;;;;;;;11.65;100.00;100015.44;5011898;28;20960;-53
2021/09/19 04:59:25;;;;;;;0.30;0.20;;;;;;;11.64;100.00;100006.56;5005158;28;20457;-53
2021/09/19 05:01:52;;;;;;;0.30;0.20;;;;;;;11.60;100.00;100004.97;5006247;28;20474;-53
2021/09/19 05:04:19;;;;;;;0.30;0.20;;;;;;;11.67;100.00;100009.16;5006642;28;20464;-54
2021/09/19 05:06:46;;;;;;;0.30;0.20;;;;;;;11.64;100.00;100003.91;5010081;28;20453;-53
2021/09/19 05:09:13;;;;;;;0.40;0.30;;;;;;;11.51;100.00;100003.53;5006686;28;20459;-53
2021/09/19 05:11:40;;;;;;;0.30;0.20;;;;;;;11.52;100.00;100001.75;5016592;23;20539;-52
2021/09/19 05:14:06;;;;;;;0.30;0.20;;;;;;;11.48;100.00;100002.75;5015437;28;20591;-52
2021/09/19 05:16:34;;;;;;;0.30;0.20;;;;;;;11.53;100.00;100015.00;5015393;28;20452;-52
2021/09/19 05:19:00;;;;;;;0.30;0.20;;;;;;;11.52;100.00;100023.03;5015424;28;20520;-52
2021/09/19 05:21:27;;;;;;;0.30;0.20;;;;;;;11.61;100.00;100022.66;5015128;28;20902;-52
2021/09/19 05:23:54;;;;;;;0.30;0.20;;;;;;;11.50;100.00;100025.72;5004197;28;20500;-52
2021/09/19 05:26:24;;;;;;;0.30;0.20;;;;;;;11.67;100.00;100034.91;5008694;28;20453;-52
2021/09/19 05:28:52;;;;;;;0.30;0.20;;;;;;;11.62;100.00;100027.06;5007484;28;20857;-52
2021/09/19 05:31:19;;;;;;;0.40;0.30;;;;;;;11.70;100.00;100030.31;4996578;28;20528;-52
2021/09/19 05:33:47;;;;;;;0.30;0.20;;;;;;;11.69;100.00;100035.72;4999807;28;20523;-52
2021/09/19 05:36:15;;;;;;;0.30;0.20;;;;;;;11.70;100.00;100030.31;5001672;28;20567;-52
2021/09/19 05:38:41;;;;;;;0.30;0.20;;;;;;;11.71;100.00;100034.72;5003015;28;20912;-52
2021/09/19 05:41:08;;;;;;;0.60;0.60;;;;;;;11.67;100.00;100042.91;5008404;28;20473;-52
2021/09/19 05:43:35;;;;;;;0.30;0.20;;;;;;;11.77;100.00;100039.81;5007497;28;20489;-52
2021/09/19 05:46:02;;;;;;;0.30;0.20;;;;;;;11.76;100.00;100040.75;5001677;28;20481;-52
2021/09/19 05:48:29;;;;;;;0.30;0.30;;;;;;;11.96;100.00;100048.03;5002434;28;20488;-52
2021/09/19 05:50:56;;;;;;;0.30;0.20;;;;;;;11.92;100.00;100048.19;5008023;28;20535;-52
2021/09/19 05:53:23;;;;;;;0.30;0.20;;;;;;;12.00;100.00;100048.78;5007777;28;20481;-52
2021/09/19 05:55:50;;;;;;;0.30;0.20;;;;;;;12.13;100.00;100058.91;5001096;28;20476;-52
2021/09/19 05:58:17;;;;;;;0.30;0.20;;;;;;;12.21;100.00;100063.94;5001287;28;20575;-52
2021/09/19 06:00:44;;;;;;;0.37;0.30;;;;;;;12.43;100.00;100061.28;5014083;28;20497;-52
2021/09/19 06:03:11;;;;;;;0.30;0.20;;;;;;;12.40;100.00;100056.06;5007873;28;20463;-52
2021/09/19 06:05:38;;;;;;;0.30;0.20;;;;;;;12.53;100.00;100059.13;5002090;28;20827;-52
2021/09/19 06:08:06;;;;;;;0.30;0.20;;;;;;;12.66;100.00;100066.56;5001320;28;20460;-52
2021/09/19 06:10:33;;;;;;;0.30;0.20;;;;;;;12.73;100.00;100061.84;5006308;28;20918;-52
2021/09/19 06:13:00;;;;;;;0.30;0.20;;;;;;;12.79;100.00;100052.72;5007616;28;20453;-52
2021/09/19 06:15:27;;;;;;;0.33;0.20;;;;;;;12.77;100.00;100049.25;4994856;28;20454;-52
2021/09/19 06:17:53;;;;;;;0.30;0.20;;;;;;;13.07;100.00;100044.44;5007777;28;20492;-52
2021/09/19 06:20:20;;;;;;;0.30;0.20;;;;;;;13.20;100.00;100037.66;5003280;28;20530;-52
2021/09/19 06:22:47;;;;;;;0.53;0.53;;;;;;;13.18;100.00;100037.75;5001006;28;20500;-53
2021/09/19 06:25:15;;;;;;;0.30;0.20;;;;;;;13.48;100.00;100034.66;5005197;28;20486;-52
2021/09/19 06:27:42;;;;;;;0.30;0.20;;;;;;;13.65;100.00;100048.09;5007391;28;20961;-53
2021/09/19 06:30:10;;;;;;;1.43;0.67;;;;;;;13.78;100.00;100043.06;5002846;28;20534;-52
2021/09/19 06:32:37;;;;;;;0.30;0.20;;;;;;;13.92;100.00;100038.84;5007622;28;20527;-52
2021/09/19 06:35:06;;;;;;;12.27;2.47;;;;;;;13.94;100.00;100036.94;5003886;28;20951;-52
2021/09/19 06:37:33;;;;;;;0.30;0.20;;;;;;;14.01;100.00;100042.03;4984044;28;21075;-52
2021/09/19 06:40:02;;;;;;;0.40;0.20;;;;;;;14.25;100.00;100043.53;5004784;28;20472;-52
2021/09/19 06:42:29;;;;;;;0.40;0.40;;;;;;;14.20;100.00;100046.41;4983849;28;20509;-52
2021/09/19 06:44:56;;;;;;;0.30;0.20;;;;;;;14.15;100.00;100045.78;5003364;28;20874;-52
2021/09/19 06:47:23;;;;;;;0.30;0.20;;;;;;;14.13;100.00;100044.13;5000536;28;20468;-52
2021/09/19 06:49:50;;;;;;;0.30;0.20;;;;;;;14.22;100.00;100032.97;5003514;28;20446;-52
2021/09/19 06:52:17;;;;;;;0.47;0.47;;;;;;;14.24;100.00;100036.44;5006257;28;20524;-53
2021/09/19 06:54:44;;;;;;;0.30;0.20;;;;;;;14.31;100.00;100031.69;5004752;28;20804;-52
2021/09/19 06:57:11;;;;;;;0.83;0.57;;;;;;;14.34;100.00;100031.53;5012219;28;20480;-53
2021/09/19 06:59:38;;;;;;;0.30;0.20;;;;;;;14.47;100.00;100030.91;5001213;28;20574;-53
2021/09/19 07:02:05;;;;;;;0.30;0.20;;;;;;;14.38;100.00;100025.09;5005379;28;20867;-52
2021/09/19 07:04:32;;;;;;;2.60;1.27;;;;;;;14.41;100.00;100032.97;5001664;28;20958;-52
2021/09/19 07:06:59;;;;;;;0.30;0.20;;;;;;;14.46;100.00;100033.66;5006805;28;20454;-52
2021/09/19 07:09:26;;;;;;;0.30;0.30;;;;;;;14.65;100.00;100034.47;5006139;28;20449;-52
2021/09/19 07:11:53;;;;;;;0.30;0.20;;;;;;;14.68;100.00;100049.53;4999802;28;20476;-52
2021/09/19 07:14:20;;;;;;;0.40;0.20;;;;;;;14.78;100.00;100040.94;5000569;28;20880;-52
2021/09/19 07:16:46;;;;;;;3.03;1.07;;;;;;;14.92;100.00;100042.06;5006824;28;20485;-52
2021/09/19 07:19:13;;;;;;;0.40;0.20;;;;;;;14.95;100.00;100045.47;5006350;28;20562;-52
2021/09/19 07:21:40;;;;;;;0.30;0.20;;;;;;;14.90;100.00;100036.78;4999913;28;20534;-52
2021/09/19 07:24:07;;;;;;;0.33;0.20;;;;;;;14.95;100.00;100050.81;4987635;28;20482;-52
2021/09/19 07:26:34;;;;;;;0.97;0.70;;;;;;;15.14;100.00;100045.38;4999558;28;20467;-52
2021/09/19 07:29:02;;;;;;;0.40;0.30;;;;;;;15.07;100.00;100044.81;4999213;28;20815;-52
2021/09/19 07:31:29;;;;;;;0.33;0.23;;;;;;;15.25;100.00;100044.84;5006168;28;20477;-53
2021/09/19 07:33:56;;;;;;;0.50;0.43;;;;;;;15.11;100.00;100049.09;5006508;28;20491;-52
2021/09/19 07:36:27;;;;;;;0.30;0.20;;;;;;;15.35;100.00;100048.75;5000531;28;20479;-53
2021/09/19 07:38:54;;;;;;;0.40;0.20;;;;;;;15.36;100.00;100050.53;4999479;28;20925;-53
2021/09/19 07:41:22;;;;;;;0.40;0.30;;;;;;;15.51;100.00;100048.84;5005005;28;20552;-52
2021/09/19 07:43:49;;;;;;;0.80;0.80;;;;;;;15.68;100.00;100051.53;5006447;28;20476;-52
2021/09/19 07:46:17;;;;;;;0.30;0.20;;;;;;;15.68;100.00;100055.06;5001271;28;20511;-53
2021/09/19 07:48:45;;;;;;;0.40;0.27;;;;;;;15.51;100.00;100054.19;4999708;28;20528;-53
2021/09/19 07:51:12;;;;;;;0.30;0.20;;;;;;;15.58;100.00;100056.47;5004079;28;20481;-53
2021/09/19 07:53:39;;;;;;;0.40;0.20;;;;;;;15.97;100.00;100058.00;5006100;28;20939;-52
2021/09/19 07:56:07;;;;;;;0.40;0.30;;;;;;;16.05;100.00;100060.25;5002117;28;20515;-53
2021/09/19 07:58:34;;;;;;;0.40;0.20;;;;;;;16.12;100.00;100064.31;5009836;28;20493;-53
2021/09/19 08:01:00;;;;;;;0.40;0.20;;;;;;;16.09;100.00;100061.81;5002162;28;20500;-53
2021/09/19 08:03:28;;;;;;;0.40;0.20;;;;;;;16.20;100.00;100065.66;4999567;28;20519;-52
2021/09/19 08:05:55;;;;;;;0.40;0.20;;;;;;;16.27;100.00;100066.16;5002818;28;20449;-53
2021/09/19 08:08:22;;;;;;;0.40;0.30;;;;;;;16.42;100.00;100076.03;5005787;28;20864;-53
2021/09/19 08:10:49;;;;;;;0.40;0.20;;;;;;;16.49;100.00;100074.75;5002899;28;20547;-53
2021/09/19 08:13:16;;;;;;;0.40;0.20;;;;;;;16.42;100.00;100069.78;4999595;28;20469;-52
2021/09/19 08:15:42;;;;;;;0.40;0.20;;;;;;;16.54;100.00;100069.09;5001688;28;20993;-53
2021/09/19 08:18:09;;;;;;;0.40;0.30;;;;;;;16.52;100.00;100073.69;5005113;28;20999;-53
2021/09/19 08:20:37;;;;;;;0.40;0.20;;;;;;;16.48;100.00;100080.19;5003884;28;20563;-52
2021/09/19 08:23:04;;;;;;;0.40;0.20;;;;;;;16.57;100.00;100080.53;4999155;28;20514;-52
2021/09/19 08:25:31;;;;;;;0.40;0.20;;;;;;;16.62;100.00;100082.09;5000987;28;20939;-53
2021/09/19 08:27:58;;;;;;;0.40;0.20;;;;;;;16.91;100.00;100080.47;5006251;28;20495;-53
2021/09/19 08:30:24;;;;;;;0.40;0.20;;;;;;;16.99;100.00;100080.88;5004392;28;20837;-53
2021/09/19 08:32:51;;;;;;;0.40;0.20;;;;;;;16.79;99.62;100095.44;4999167;28;20452;-52
2021/09/19 08:35:18;;;;;;;0.40;0.20;;;;;;;16.93;100.00;100086.59;5000146;28;20979;-53
2021/09/19 08:37:46;;;;;;;0.40;0.20;;;;;;;17.05;99.02;100084.06;5005464;28;20504;-53
2021/09/19 08:40:14;;;;;;;0.40;0.30;;;;;;;17.19;97.74;100085.94;4992832;28;20469;-52
2021/09/19 08:42:42;;;;;;;0.40;0.20;;;;;;;17.29;97.88;100088.97;5005870;28;20453;-52
2021/09/19 08:45:11;;;;;;;0.40;0.20;;;;;;;17.52;97.06;100082.19;4992502;28;20477;-53
2021/09/19 08:47:38;;;;;;;0.40;0.20;;;;;;;17.43;97.71;100084.50;5005171;28;20505;-53
2021/09/19 08:50:08;;;;;;;0.63;0.63;;;;;;;17.38;96.23;100091.94;4992552;28;20469;-53
2021/09/19 08:52:36;;;;;;;0.40;0.30;;;;;;;17.39;95.54;100095.50;5003416;28;20489;-53
2021/09/19 08:55:06;;;;;;;0.40;0.20;;;;;;;17.35;95.64;100091.28;4993874;28;20504;-53
2021/09/19 08:57:33;;;;;;;0.43;0.33;;;;;;;17.33;95.36;100086.00;5004798;28;20855;-52
2021/09/19 09:00:16;;;;;;;4.23;0.50;;;;;;;17.56;95.51;100099.88;5005366;28;20533;-53
2021/09/19 09:02:54;;;;;;;0.50;0.30;;;;;;;17.60;94.72;100094.22;5002449;28;20453;-53
2021/09/19 09:05:26;;;;;;;0.40;0.20;;;;;;;17.59;94.40;100094.31;4998755;28;20472;-53
2021/09/19 09:07:58;;;;;;;0.60;0.60;;;;;;;17.81;93.28;100096.56;4999622;28;20450;-52
2021/09/19 09:10:32;;;;;;;1.93;1.60;;;;;;;17.74;93.98;100091.59;4998830;28;20515;-53
2021/09/19 09:13:05;;;;;;;0.60;0.40;;;;;;;18.12;92.68;100091.03;4998725;28;20479;-52
2021/09/19 09:15:47;;;;;;;1.63;1.53;;;;;;;17.93;92.02;100085.91;5011951;28;20930;-52
2021/09/19 09:18:27;;;;;;;0.40;0.30;;;;;;;17.86;91.91;100092.66;4998371;28;21136;-52
2021/09/19 09:20:59;;;;;;;0.77;0.77;;;;;;;17.90;92.36;100088.81;4999443;28;20470;-53
2021/09/19 09:23:30;;;;;;;0.40;0.30;;;;;;;17.84;91.68;100085.66;5005258;28;20481;-53
2021/09/19 09:26:10;;;;;;;2.33;2.13;;;;;;;17.80;91.69;100089.47;5005268;28;20472;-53
2021/09/19 09:28:56;;;;;;;0.40;0.20;;;;;;;18.11;91.52;100073.16;5002092;28;20455;-53
2021/09/19 09:31:33;;;;;;;0.40;0.20;;;;;;;18.34;90.01;100085.13;5002469;28;20504;-53
2021/09/19 09:34:04;;;;;;;0.40;0.20;;;;;;;18.32;89.42;100070.91;5008793;28;20535;-53
2021/09/19 09:36:39;;;;;;;0.40;0.30;;;;;;;18.41;89.80;100074.88;5007954;28;20507;-53
2021/09/19 09:39:36;;;;;;;0.40;0.20;;;;;;;18.29;89.85;100069.28;5008553;28;20491;-53
2021/09/19 09:42:21;;;;;;;0.67;0.67;;;;;;;18.32;89.00;100087.06;5007938;28;20484;-53
2021/09/19 09:44:51;;;;;;;0.40;0.20;;;;;;;18.65;89.46;100084.06;5006474;28;20499;-53
2021/09/19 09:47:19;;;;;;;0.60;0.60;;;;;;;18.67;87.93;100074.06;5008616;28;20473;-53
2021/09/19 09:49:52;;;;;;;0.40;0.20;;;;;;;18.62;88.72;100077.00;5004597;28;20872;-53
2021/09/19 09:52:21;;;;;;;0.40;0.27;;;;;;;18.73;88.34;100070.09;5001814;28;20440;-53
2021/09/19 09:54:52;;;;;;;0.40;0.20;;;;;;;18.72;88.13;100074.63;5004274;28;20456;-53
2021/09/19 09:57:22;;;;;;;0.43;0.30;;;;;;;18.71;87.18;100066.66;5013942;28;20503;-53
2021/09/19 09:59:51;;;;;;;0.40;0.20;;;;;;;18.86;85.66;100071.88;5001861;28;20592;-52
2021/09/19 10:02:19;;;;;;;0.53;0.53;;;;;;;18.94;85.64;100058.78;5005952;28;20511;-53
2021/09/19 10:04:47;;;;;;;0.40;0.20;;;;;;;19.20;84.59;100065.09;5001598;28;20460;-53
2021/09/19 10:07:15;;;;;;;0.40;0.20;;;;;;;18.99;85.02;100065.69;5006972;28;20874;-53
2021/09/19 10:09:43;;;;;;;0.40;0.20;;;;;;;19.26;83.80;100069.19;5008189;28;20452;-53
2021/09/19 10:12:10;;;;;;;0.40;0.20;;;;;;;19.18;83.40;100067.00;5003274;28;20468;-53
2021/09/19 10:14:37;;;;;;;0.40;0.20;;;;;;;18.96;84.87;100065.88;5001300;28;20460;-53
2021/09/19 10:17:04;;;;;;;0.60;0.60;;;;;;;19.04;84.49;100060.84;5006089;28;20450;-53
2021/09/19 10:19:32;;;;;;;0.93;0.93;;;;;;;19.23;83.71;100059.50;5007617;28;20542;-53
2021/09/19 10:21:59;;;;;;;0.40;0.30;;;;;;;19.06;82.48;100053.53;5003506;28;20452;-53
2021/09/19 10:24:27;;;;;;;0.40;0.20;;;;;;;19.28;82.06;100055.63;5001102;28;20970;-53
2021/09/19 10:26:57;;;;;;;0.40;0.20;;;;;;;19.49;81.67;100060.41;5005214;28;20453;-53
2021/09/19 10:29:28;;;;;;;0.40;0.20;;;;;;;19.23;82.10;100056.81;5007600;28;20449;-53
2021/09/19 10:31:58;;;;;;;0.40;0.30;;;;;;;19.57;81.81;100051.81;4999479;28;20839;-53
2021/09/19 10:34:31;;;;;;;0.40;0.20;;;;;;;19.24;81.48;100057.66;5007511;28;20525;-53
2021/09/19 10:37:00;;;;;;;0.40;0.20;;;;;;;19.45;81.84;100061.56;5006434;28;20607;-53
2021/09/19 10:39:38;;;;;;;0.40;0.20;;;;;;;19.24;80.60;100052.28;5000239;28;21013;-53
2021/09/19 10:42:26;;;;;;;0.40;0.30;;;;;;;19.12;81.89;100053.97;5000806;28;20516;-53
2021/09/19 10:44:55;;;;;;;0.40;0.30;;;;;;;19.17;82.63;100050.94;5002576;28;20446;-53
2021/09/19 10:47:25;;;;;;;0.40;0.20;;;;;;;19.27;82.97;100043.97;5007279;28;20930;-53
2021/09/19 10:50:21;;;;;;;0.63;0.63;;;;;;;19.67;81.86;100044.81;5003792;28;20468;-53
2021/09/19 10:52:57;;;;;;;0.40;0.37;;;;;;;19.89;80.01;100046.00;5005456;28;20504;-53
2021/09/19 10:55:27;;;;;;;0.40;0.20;;;;;;;19.44;80.80;100042.81;5010447;28;20498;-53
2021/09/19 10:58:03;;;;;;;0.40;0.20;;;;;;;19.63;79.61;100045.13;5013953;28;20448;-53
2021/09/19 11:00:33;;;;;;;0.40;0.20;;;;;;;19.67;80.12;100049.34;5000483;28;20527;-53
2021/09/19 11:03:26;;;;;;;1.77;1.67;;;;;;;19.64;80.41;100041.47;5007032;28;20448;-53
2021/09/19 11:05:54;;;;;;;0.40;0.40;;;;;;;19.70;78.59;100047.28;5004632;28;20449;-53
2021/09/19 11:08:21;;;;;;;0.40;0.20;;;;;;;19.63;78.76;100045.13;5004403;28;20528;-53
2021/09/19 11:10:55;;;;;;;0.40;0.20;;;;;;;19.46;79.29;100049.84;4984544;28;20500;-52
2021/09/19 11:13:27;;;;;;;0.40;0.20;;;;;;;19.22;80.72;100040.75;5006957;28;20511;-53
2021/09/19 11:16:03;;;;;;;0.40;0.20;;;;;;;19.70;79.74;100038.31;5005785;28;20502;-53
2021/09/19 11:18:54;;;;;;;0.40;0.20;;;;;;;20.33;77.60;100045.50;5000328;28;20479;-53
2021/09/19 11:21:21;;;;;;;0.40;0.20;;;;;;;20.43;76.90;100053.84;4994063;28;20885;-54
2021/09/19 11:23:54;;;;;;;1.07;0.97;;;;;;;19.98;77.50;100050.72;5003778;28;21004;-53
2021/09/19 11:26:26;;;;;;;0.50;0.33;;;;;;;20.07;77.68;100045.53;5006487;28;20481;-53